KMOB/MOB METAR and TAF weather

Enter ICAO airport designator
Station Type Date Time Source
KMOB METAR 2023/12/03 16:56 UTC NOAA

KMOB 031656Z 29003KT 7SM FEW012 BKN240 21/16 A3002 RMK AO2 SLP164 T02060156


Station Type Date Time Source
KMOB Decoded METAR 2023/12/03 16:56 UTC NOAA

MOBILE REGIONAL AIRPORT, AL, United States (KMOB) 30-41N 88-14W 67M
Dec 03, 2023 - 11:56 AM EST / 2023.12.03 1656 UTC
Wind: from the WNW (290 degrees) at 3 MPH (3 KT):0
Visibility: 7 mile(s):0
Sky conditions: mostly cloudy
Temperature: 69.1 F (20.6 C)
Dew Point: 60.1 F (15.6 C)
Relative Humidity: 73%
Pressure (altimeter): 30.02 in. Hg (1016 hPa)
ob: KMOB 031656Z 29003KT 7SM FEW012 BKN240 21/16 A3002 RMK AO2 SLP164 T02060156
cycle: 17

Station Type Date Time Source
KMOB TAF 2023/12/03 18:24 UTC NOAA

TAF KMOB 031721Z 0318/0418 29003KT P6SM SCT250
FM040300 28002KT P6SM SKC
FM041300 28006KT P6SM SKC

Example: see airport list